KOQT METAR and TAF weather

Enter ICAO airport designator
Station Type Date Time Source
KOQT METAR 2018/02/22 07:53 UTC NOAA

KOQT 220753Z AUTO 20006KT 10SM CLR 21/17 A3029 RMK AO2 SLP245 T02110172


Station Type Date Time Source
KOQT Decoded METAR 2018/02/22 07:53 UTC NOAA

OAK RIDGE, TN, United States (KOQT) 36-01N 84-14W
Feb 22, 2018 - 02:53 AM EST / 2018.02.22 0753 UTC
Wind: from the SSW (200 degrees) at 7 MPH (6 KT):0
Visibility: 10 mile(s):0
Sky conditions: clear
Temperature: 70.0 F (21.1 C)
Dew Point: 63.0 F (17.2 C)
Relative Humidity: 78%
Pressure (altimeter): 30.29 in. Hg (1025 hPa)
ob: KOQT 220753Z AUTO 20006KT 10SM CLR 21/17 A3029 RMK AO2 SLP245 T02110172
cycle: 8

Station Type Date Time Source
KOQT TAF UTC NOAA

Error!


Example: see airport list